Time;durP1;ratioP1;P1;durP2;ratioP2;P2;SDS_P1;SDS_P2;PMS_P1;PMS_P2;Temp;Humidity;BMP_temperature;BMP_pressure;BME280_temperature;BME280_humidity;BME280_pressure;Samples;Min_cycle;Max_cycle;Signal;HPM_P1;HPM_P2
2022/08/01 00:00:02;;;;;;;7.68;2.03;;;;;;;;;;5024726;28;20048;-67
2022/08/01 00:02:28;;;;;;;6.63;2.00;;;;;;;;;;5028827;28;20083;-67
2022/08/01 00:04:55;;;;;;;6.72;2.22;;;;;;;;;;5029273;28;20095;-67
2022/08/01 00:07:21;;;;;;;10.43;2.38;;;;;;;;;;5010199;28;20029;-67
2022/08/01 00:09:47;;;;;;;6.05;1.90;;;;;;;;;;5028748;28;20401;-67
2022/08/01 00:12:13;;;;;;;5.82;2.20;;;;;;;;;;5028607;28;20122;-67
2022/08/01 00:14:39;;;;;;;5.50;1.90;;;;;;;;;;5029309;28;20029;-68
2022/08/01 00:17:05;;;;;;;7.35;3.20;;;;;;;;;;5023576;28;20601;-67
2022/08/01 00:19:32;;;;;;;8.65;2.35;;;;;;;;;;5029183;28;20958;-67
2022/08/01 00:21:58;;;;;;;8.77;2.75;;;;;;;;;;5026312;28;20385;-67
2022/08/01 00:24:24;;;;;;;6.65;2.05;;;;;;;;;;5029014;28;20028;-67
2022/08/01 00:26:50;;;;;;;9.35;2.50;;;;;;;;;;5028476;28;20475;-67
2022/08/01 00:29:16;;;;;;;8.02;2.60;;;;;;;;;;5027482;28;20060;-67
2022/08/01 00:31:42;;;;;;;7.38;2.60;;;;;;;;;;5029376;28;20092;-67
2022/08/01 00:34:09;;;;;;;8.35;2.60;;;;;;;;;;5026827;28;20036;-67
2022/08/01 00:36:35;;;;;;;6.90;2.50;;;;;;;;;;5029133;28;20094;-67
2022/08/01 00:39:01;;;;;;;7.05;2.00;;;;;;;;;;5030127;28;20033;-67
2022/08/01 00:41:27;;;;;;;4.60;1.75;;;;;;;;;;5022838;28;20021;-67
2022/08/01 00:43:54;;;;;;;5.35;1.70;;;;;;;;;;5011013;28;20048;-68
2022/08/01 00:46:20;;;;;;;5.57;1.90;;;;;;;;;;5023736;28;20028;-67
2022/08/01 00:48:46;;;;;;;5.63;1.90;;;;;;;;;;5012687;28;20078;-67
2022/08/01 00:51:13;;;;;;;7.47;1.80;;;;;;;;;;5008829;28;20025;-67
2022/08/01 00:53:40;;;;;;;10.77;2.00;;;;;;;;;;5017955;28;20048;-67
2022/08/01 00:56:06;;;;;;;5.75;1.88;;;;;;;;;;4997443;28;20021;-67
2022/08/01 00:58:33;;;;;;;5.43;1.90;;;;;;;;;;5024941;28;20110;-67
2022/08/01 01:01:00;;;;;;;6.35;2.03;;;;;;;;;;5027320;28;20349;-67
2022/08/01 01:03:26;;;;;;;6.72;2.22;;;;;;;;;;5028224;28;20114;-67
2022/08/01 01:06:16;;;;;;;5.45;1.90;;;;;;;;;;5028704;28;20090;-67
2022/08/01 01:08:44;;;;;;;7.28;1.90;;;;;;;;;;5015336;28;20523;-67
2022/08/01 01:11:26;;;;;;;6.03;2.00;;;;;;;;;;5007955;28;20106;-67
2022/08/01 01:14:06;;;;;;;6.35;1.98;;;;;;;;;;5027812;28;20033;-67
2022/08/01 01:16:34;;;;;;;6.05;2.20;;;;;;;;;;5009760;28;20094;-67
2022/08/01 01:19:04;;;;;;;6.68;2.70;;;;;;;;;;5024423;28;20068;-67
2022/08/01 01:21:42;;;;;;;5.65;2.05;;;;;;;;;;5027299;28;20373;-67
2022/08/01 01:24:11;;;;;;;8.70;2.35;;;;;;;;;;5025388;28;20032;-67
2022/08/01 01:26:47;;;;;;;7.15;2.60;;;;;;;;;;5027009;28;20614;-67
2022/08/01 01:29:16;;;;;;;6.93;2.40;;;;;;;;;;5026832;28;20043;-67
2022/08/01 01:31:48;;;;;;;6.50;2.50;;;;;;;;;;5008843;28;20033;-67
2022/08/01 01:34:16;;;;;;;7.10;2.78;;;;;;;;;;5023983;28;20024;-67
2022/08/01 01:36:43;;;;;;;6.60;2.22;;;;;;;;;;5026895;28;20620;-67
2022/08/01 01:39:09;;;;;;;7.28;2.55;;;;;;;;;;5023775;28;20083;-67
2022/08/01 01:41:37;;;;;;;7.38;2.33;;;;;;;;;;5025839;28;20123;-67
2022/08/01 01:44:04;;;;;;;7.07;2.38;;;;;;;;;;5024317;28;20368;-67
2022/08/01 01:46:31;;;;;;;6.90;2.45;;;;;;;;;;5007877;28;20564;-67
2022/08/01 01:48:58;;;;;;;7.07;2.53;;;;;;;;;;5024159;28;20150;-67
2022/08/01 01:51:26;;;;;;;5.75;2.00;;;;;;;;;;5024319;28;20033;-66
2022/08/01 01:53:54;;;;;;;8.32;2.22;;;;;;;;;;5008360;28;20029;-67
2022/08/01 01:56:20;;;;;;;6.13;2.30;;;;;;;;;;5019228;28;20025;-67
2022/08/01 01:58:50;;;;;;;5.35;1.90;;;;;;;;;;5027800;28;20025;-67
2022/08/01 02:01:16;;;;;;;6.63;2.47;;;;;;;;;;5023538;28;20490;-66
2022/08/01 02:03:44;;;;;;;5.68;2.17;;;;;;;;;;5007098;28;20309;-66
2022/08/01 02:06:12;;;;;;;5.47;1.95;;;;;;;;;;5021970;28;20025;-67
2022/08/01 02:08:41;;;;;;;5.82;1.98;;;;;;;;;;5021695;28;20056;-67
2022/08/01 02:11:19;;;;;;;6.13;1.80;;;;;;;;;;5022525;28;20817;-67
2022/08/01 02:13:47;;;;;;;5.85;1.98;;;;;;;;;;5004389;28;20034;-66
2022/08/01 02:16:13;;;;;;;5.78;1.75;;;;;;;;;;5022549;28;20069;-66
2022/08/01 02:18:39;;;;;;;6.95;1.73;;;;;;;;;;5022803;28;20068;-67
2022/08/01 02:21:08;;;;;;;5.45;1.88;;;;;;;;;;5024574;28;20479;-66
2022/08/01 02:23:36;;;;;;;5.72;1.95;;;;;;;;;;5024859;28;20037;-67
2022/08/01 02:26:07;;;;;;;5.40;1.55;;;;;;;;;;5021593;28;20029;-67
2022/08/01 02:28:36;;;;;;;6.40;1.63;;;;;;;;;;5021521;28;20025;-67
2022/08/01 02:31:05;;;;;;;6.30;1.60;;;;;;;;;;5017876;28;20544;-67
2022/08/01 02:33:37;;;;;;;5.45;1.70;;;;;;;;;;5006773;28;20029;-67
2022/08/01 02:36:03;;;;;;;5.38;1.80;;;;;;;;;;5023115;28;20436;-67
2022/08/01 02:38:31;;;;;;;4.22;1.70;;;;;;;;;;5024274;28;20013;-66
2022/08/01 02:40:59;;;;;;;7.20;2.08;;;;;;;;;;5007227;28;20132;-66
2022/08/01 02:43:27;;;;;;;7.55;2.20;;;;;;;;;;5007027;28;20033;-68
2022/08/01 02:45:59;;;;;;;5.40;1.80;;;;;;;;;;5025341;28;20036;-66
2022/08/01 02:48:26;;;;;;;5.55;1.83;;;;;;;;;;5019585;28;20025;-66
2022/08/01 02:50:53;;;;;;;6.70;1.83;;;;;;;;;;5024830;28;20024;-66
2022/08/01 02:53:21;;;;;;;4.97;1.90;;;;;;;;;;5017606;28;20064;-66
2022/08/01 02:55:48;;;;;;;5.78;1.83;;;;;;;;;;5003188;28;20500;-66
2022/08/01 02:58:19;;;;;;;5.75;2.13;;;;;;;;;;5025333;28;20117;-68
2022/08/01 03:00:45;;;;;;;7.25;2.08;;;;;;;;;;5014263;28;20076;-66
2022/08/01 03:03:12;;;;;;;6.13;1.85;;;;;;;;;;5014141;28;20622;-66
2022/08/01 03:05:39;;;;;;;6.35;1.85;;;;;;;;;;5024749;28;20370;-66
2022/08/01 03:08:07;;;;;;;6.38;1.85;;;;;;;;;;5003234;28;20028;-66
2022/08/01 03:10:35;;;;;;;8.15;2.00;;;;;;;;;;5021751;28;20040;-66
2022/08/01 03:13:02;;;;;;;6.80;1.98;;;;;;;;;;5026978;28;20548;-66
2022/08/01 03:15:30;;;;;;;7.72;1.88;;;;;;;;;;5027931;28;20108;-66
2022/08/01 03:17:57;;;;;;;10.85;1.95;;;;;;;;;;5028251;28;20032;-66
2022/08/01 03:20:24;;;;;;;5.10;1.60;;;;;;;;;;5028442;28;20370;-66
2022/08/01 03:22:52;;;;;;;6.57;1.67;;;;;;;;;;5025719;28;20033;-66
2022/08/01 03:25:19;;;;;;;5.47;1.67;;;;;;;;;;5022364;28;20357;-66
2022/08/01 03:27:48;;;;;;;7.80;1.80;;;;;;;;;;5024416;28;20495;-66
2022/08/01 03:30:15;;;;;;;6.00;1.80;;;;;;;;;;5005502;28;20021;-67
2022/08/01 03:32:41;;;;;;;6.00;1.90;;;;;;;;;;5025722;28;20394;-67
2022/08/01 03:35:07;;;;;;;5.72;1.90;;;;;;;;;;5024357;28;20090;-67
2022/08/01 03:37:36;;;;;;;6.32;1.92;;;;;;;;;;5023719;28;20056;-67
2022/08/01 03:40:06;;;;;;;5.03;1.80;;;;;;;;;;5020974;28;20040;-66
2022/08/01 03:42:34;;;;;;;6.32;2.08;;;;;;;;;;5006814;28;20488;-67
2022/08/01 03:45:24;;;;;;;4.80;1.83;;;;;;;;;;5023059;28;20036;-67
2022/08/01 03:47:53;;;;;;;5.68;1.90;;;;;;;;;;5017540;28;20045;-67
2022/08/01 03:50:20;;;;;;;6.55;2.03;;;;;;;;;;5024300;28;20047;-66
2022/08/01 03:52:47;;;;;;;5.05;1.65;;;;;;;;;;5012984;28;20606;-66
2022/08/01 03:55:13;;;;;;;6.43;1.88;;;;;;;;;;5015320;28;20037;-67
2022/08/01 03:57:40;;;;;;;5.32;1.70;;;;;;;;;;5022629;28;20067;-67
2022/08/01 04:00:08;;;;;;;7.65;2.05;;;;;;;;;;5020796;28;20044;-67
2022/08/01 04:02:35;;;;;;;6.82;2.13;;;;;;;;;;5025204;28;20036;-66
2022/08/01 04:05:01;;;;;;;6.38;2.13;;;;;;;;;;5023073;28;20576;-66
2022/08/01 04:07:31;;;;;;;6.00;2.08;;;;;;;;;;5022665;28;20067;-67
2022/08/01 04:09:58;;;;;;;6.88;2.20;;;;;;;;;;5023249;28;20029;-67
2022/08/01 04:12:24;;;;;;;8.57;2.33;;;;;;;;;;5022543;28;20167;-67
2022/08/01 04:14:51;;;;;;;6.45;2.40;;;;;;;;;;5023844;28;20032;-67
2022/08/01 04:17:17;;;;;;;5.05;2.25;;;;;;;;;;5020367;28;20029;-68
2022/08/01 04:19:44;;;;;;;6.57;2.33;;;;;;;;;;5022983;28;20036;-66
2022/08/01 04:22:12;;;;;;;7.78;2.20;;;;;;;;;;5024084;28;20068;-67
2022/08/01 04:24:38;;;;;;;6.43;2.30;;;;;;;;;;5024777;28;20040;-67
2022/08/01 04:27:06;;;;;;;8.20;2.45;;;;;;;;;;5022825;28;20025;-67
2022/08/01 04:29:34;;;;;;;7.65;2.75;;;;;;;;;;5023824;28;20436;-67
2022/08/01 04:32:01;;;;;;;9.30;2.72;;;;;;;;;;5023359;28;20015;-67
2022/08/01 04:34:29;;;;;;;9.43;2.85;;;;;;;;;;5019679;28;20029;-67
2022/08/01 04:36:56;;;;;;;8.27;2.58;;;;;;;;;;5024497;28;20575;-67
2022/08/01 04:39:24;;;;;;;10.52;2.80;;;;;;;;;;5021151;28;20032;-67
2022/08/01 04:41:51;;;;;;;7.07;2.55;;;;;;;;;;5022249;28;20032;-67
2022/08/01 04:44:17;;;;;;;10.07;3.03;;;;;;;;;;5021510;28;20447;-67
2022/08/01 04:46:44;;;;;;;8.77;2.70;;;;;;;;;;5028152;28;20035;-67
2022/08/01 04:49:11;;;;;;;8.88;3.00;;;;;;;;;;5028409;28;20039;-67
2022/08/01 04:51:50;;;;;;;7.72;2.95;;;;;;;;;;5027598;28;20049;-68
2022/08/01 04:54:16;;;;;;;10.93;2.70;;;;;;;;;;5018566;28;20357;-66
2022/08/01 04:56:42;;;;;;;11.38;2.80;;;;;;;;;;5018989;28;20158;-66
2022/08/01 05:01:53;;;;;;;7.00;2.45;;;;;;;;;;5030322;28;20477;-66
2022/08/01 05:04:19;;;;;;;10.65;2.53;;;;;;;;;;5029150;28;20502;-66
2022/08/01 05:06:45;;;;;;;9.75;2.40;;;;;;;;;;5026725;28;20176;-66
2022/08/01 05:09:11;;;;;;;9.65;2.47;;;;;;;;;;5024141;28;20382;-67
2022/08/01 05:11:37;;;;;;;6.60;2.38;;;;;;;;;;5029645;28;20035;-66
2022/08/01 05:14:04;;;;;;;8.48;2.40;;;;;;;;;;5023349;28;20044;-66
2022/08/01 05:16:30;;;;;;;11.50;2.60;;;;;;;;;;5027538;28;20500;-66
2022/08/01 05:18:56;;;;;;;8.45;2.15;;;;;;;;;;5026926;28;20037;-67
2022/08/01 05:21:22;;;;;;;11.32;2.78;;;;;;;;;;5025950;28;20114;-65
2022/08/01 05:23:48;;;;;;;15.10;3.08;;;;;;;;;;5027384;28;20044;-66
2022/08/01 05:26:15;;;;;;;14.23;2.70;;;;;;;;;;5026558;28;20345;-66
2022/08/01 05:28:41;;;;;;;10.48;2.50;;;;;;;;;;5009625;28;20454;-66
2022/08/01 05:31:07;;;;;;;12.55;2.50;;;;;;;;;;5025475;28;20110;-65
2022/08/01 05:33:33;;;;;;;13.75;2.80;;;;;;;;;;5025715;28;20032;-66
2022/08/01 05:35:59;;;;;;;9.05;2.40;;;;;;;;;;5026672;28;20025;-66
2022/08/01 05:38:25;;;;;;;7.70;2.28;;;;;;;;;;5029196;28;20034;-67
2022/08/01 05:40:51;;;;;;;8.82;2.38;;;;;;;;;;5006989;28;20029;-66
2022/08/01 05:43:18;;;;;;;13.82;2.50;;;;;;;;;;5023418;28;21819;-67
2022/08/01 05:45:45;;;;;;;11.57;2.65;;;;;;;;;;5009880;28;20580;-67
2022/08/01 05:48:11;;;;;;;8.23;2.55;;;;;;;;;;5019026;28;20044;-66
2022/08/01 05:50:38;;;;;;;10.80;2.80;;;;;;;;;;5027065;28;20389;-66
2022/08/01 05:53:04;;;;;;;9.48;2.70;;;;;;;;;;5005178;28;20055;-68
2022/08/01 05:55:30;;;;;;;12.50;2.90;;;;;;;;;;5025365;28;20025;-65
2022/08/01 05:57:56;;;;;;;10.93;2.35;;;;;;;;;;5026218;28;20484;-66
2022/08/01 06:00:22;;;;;;;9.55;2.88;;;;;;;;;;5004560;28;20037;-66
2022/08/01 06:02:48;;;;;;;11.05;2.50;;;;;;;;;;5027092;28;20476;-67
2022/08/01 06:05:14;;;;;;;9.05;2.53;;;;;;;;;;5025562;28;20029;-67
2022/08/01 06:07:40;;;;;;;11.38;2.83;;;;;;;;;;5013158;28;20451;-66
2022/08/01 06:10:07;;;;;;;10.95;2.75;;;;;;;;;;5013800;28;20120;-66
2022/08/01 06:12:34;;;;;;;9.65;2.50;;;;;;;;;;5027663;28;20759;-67
2022/08/01 06:15:00;;;;;;;8.23;2.30;;;;;;;;;;5006669;28;20065;-67
2022/08/01 06:17:26;;;;;;;11.50;2.60;;;;;;;;;;5027887;28;20056;-67
2022/08/01 06:19:52;;;;;;;9.50;2.78;;;;;;;;;;5011287;28;20043;-67
2022/08/01 06:22:18;;;;;;;10.02;2.80;;;;;;;;;;5006803;28;20604;-67
2022/08/01 06:24:44;;;;;;;12.20;2.55;;;;;;;;;;5027518;28;20043;-67
2022/08/01 06:27:10;;;;;;;11.18;3.10;;;;;;;;;;5025385;28;20057;-67
2022/08/01 06:29:36;;;;;;;10.95;2.67;;;;;;;;;;5030666;28;20320;-66
2022/08/01 06:32:03;;;;;;;13.45;2.45;;;;;;;;;;5028291;28;20548;-67
2022/08/01 06:34:29;;;;;;;6.55;2.30;;;;;;;;;;5030154;28;20025;-67
2022/08/01 06:36:55;;;;;;;7.68;2.10;;;;;;;;;;5027797;28;20138;-68
2022/08/01 06:39:21;;;;;;;10.63;2.17;;;;;;;;;;5024633;28;20451;-68
2022/08/01 06:41:47;;;;;;;6.78;2.10;;;;;;;;;;5027852;28;20748;-68
2022/08/01 06:44:13;;;;;;;7.40;2.00;;;;;;;;;;5026428;28;20036;-68
2022/08/01 06:46:39;;;;;;;8.32;2.20;;;;;;;;;;5029450;28;20083;-67
2022/08/01 06:49:06;;;;;;;6.10;2.20;;;;;;;;;;5008220;28;20035;-68
2022/08/01 06:51:32;;;;;;;6.93;2.08;;;;;;;;;;5028126;28;20622;-68
2022/08/01 06:53:58;;;;;;;9.57;2.20;;;;;;;;;;5029402;28;20045;-68
2022/08/01 06:56:24;;;;;;;6.85;2.40;;;;;;;;;;5025555;28;20040;-69
2022/08/01 06:58:50;;;;;;;7.75;2.08;;;;;;;;;;5029554;28;20059;-67
2022/08/01 07:01:17;;;;;;;8.05;2.13;;;;;;;;;;5007761;28;20499;-68
2022/08/01 07:03:43;;;;;;;8.48;2.13;;;;;;;;;;5011081;28;20043;-68
2022/08/01 07:06:10;;;;;;;12.20;2.40;;;;;;;;;;5024865;28;20469;-67
2022/08/01 07:08:36;;;;;;;9.80;2.45;;;;;;;;;;5027752;28;20383;-68
2022/08/01 07:11:03;;;;;;;8.65;2.30;;;;;;;;;;5026564;28;20441;-68
2022/08/01 07:13:30;;;;;;;13.73;2.70;;;;;;;;;;5026809;28;20031;-68
2022/08/01 07:15:57;;;;;;;11.50;2.10;;;;;;;;;;5026901;28;20037;-68
2022/08/01 07:18:23;;;;;;;9.43;2.28;;;;;;;;;;5025249;28;20497;-68
2022/08/01 07:20:49;;;;;;;8.13;2.05;;;;;;;;;;5025563;28;20154;-68
2022/08/01 07:23:16;;;;;;;8.20;2.10;;;;;;;;;;5026605;28;20104;-68
2022/08/01 07:25:42;;;;;;;9.52;2.10;;;;;;;;;;5009707;28;20539;-68
2022/08/01 07:28:08;;;;;;;9.60;2.10;;;;;;;;;;5027677;28;20025;-68
2022/08/01 07:30:34;;;;;;;9.32;1.90;;;;;;;;;;5030435;28;20498;-68
2022/08/01 07:33:01;;;;;;;7.95;2.00;;;;;;;;;;5026584;28;20128;-67
2022/08/01 07:35:27;;;;;;;6.65;1.67;;;;;;;;;;5029164;28;20120;-68
2022/08/01 07:37:53;;;;;;;6.40;1.85;;;;;;;;;;5029776;28;20151;-68
2022/08/01 07:40:19;;;;;;;8.02;2.13;;;;;;;;;;5025482;28;20029;-68
2022/08/01 07:42:45;;;;;;;8.27;2.00;;;;;;;;;;5028675;28;20033;-68
2022/08/01 07:45:12;;;;;;;11.35;2.30;;;;;;;;;;5005739;28;20037;-68
2022/08/01 07:47:39;;;;;;;7.15;1.90;;;;;;;;;;5009700;28;20029;-68
2022/08/01 07:50:05;;;;;;;7.47;1.90;;;;;;;;;;5025339;28;20338;-68
2022/08/01 07:52:32;;;;;;;9.73;2.03;;;;;;;;;;5028662;28;20061;-68
2022/08/01 07:54:58;;;;;;;7.38;2.00;;;;;;;;;;5013608;28;20116;-68
2022/08/01 07:57:25;;;;;;;7.82;2.13;;;;;;;;;;5008956;28;20442;-68
2022/08/01 07:59:51;;;;;;;6.32;1.80;;;;;;;;;;5027503;28;20191;-68
2022/08/01 08:02:17;;;;;;;5.03;1.70;;;;;;;;;;5013166;28;20507;-68
2022/08/01 08:04:44;;;;;;;6.78;2.30;;;;;;;;;;5010480;28;20712;-68
2022/08/01 08:07:10;;;;;;;4.75;1.92;;;;;;;;;;5025974;28;20032;-68
2022/08/01 08:09:36;;;;;;;8.77;2.20;;;;;;;;;;5028075;28;20033;-67
2022/08/01 08:12:02;;;;;;;7.47;1.90;;;;;;;;;;5008224;28;20029;-67
2022/08/01 08:14:29;;;;;;;5.72;1.70;;;;;;;;;;5012498;28;20037;-68
2022/08/01 08:16:55;;;;;;;9.35;2.08;;;;;;;;;;5027964;28;20267;-68
2022/08/01 08:19:21;;;;;;;9.13;2.00;;;;;;;;;;5029158;28;20044;-68
2022/08/01 08:21:47;;;;;;;8.10;1.98;;;;;;;;;;5032789;28;20029;-68
2022/08/01 08:24:19;;;;;;;7.05;1.90;;;;;;;;;;5031199;28;20094;-68
2022/08/01 08:26:46;;;;;;;5.65;1.85;;;;;;;;;;5034142;28;20029;-65
2022/08/01 08:29:12;;;;;;;7.05;2.20;;;;;;;;;;5011589;28;20144;-67
2022/08/01 08:31:38;;;;;;;7.57;1.95;;;;;;;;;;5032527;28;20134;-66
2022/08/01 08:34:04;;;;;;;5.85;2.15;;;;;;;;;;5013168;28;20044;-67
2022/08/01 08:36:31;;;;;;;6.95;1.90;;;;;;;;;;5033096;28;20108;-67
2022/08/01 08:38:57;;;;;;;6.35;1.77;;;;;;;;;;5031929;28;20400;-67
2022/08/01 08:41:23;;;;;;;7.93;1.98;;;;;;;;;;5030037;28;20428;-67
2022/08/01 08:43:49;;;;;;;9.50;2.00;;;;;;;;;;5033519;28;20037;-67
2022/08/01 08:46:16;;;;;;;6.15;1.98;;;;;;;;;;5029270;28;20337;-66
2022/08/01 08:48:43;;;;;;;5.32;1.80;;;;;;;;;;5016177;28;20475;-66
2022/08/01 08:51:11;;;;;;;9.30;2.25;;;;;;;;;;5011692;28;20111;-66
2022/08/01 08:53:39;;;;;;;7.03;2.05;;;;;;;;;;5031655;28;20388;-68
2022/08/01 08:56:07;;;;;;;8.23;1.95;;;;;;;;;;5013625;28;20457;-66
2022/08/01 08:58:37;;;;;;;6.78;1.98;;;;;;;;;;5034775;28;20036;-67
2022/08/01 09:01:05;;;;;;;7.53;2.08;;;;;;;;;;5029365;28;20516;-67
2022/08/01 09:03:31;;;;;;;8.63;1.80;;;;;;;;;;5015561;28;20553;-67
2022/08/01 09:05:58;;;;;;;7.43;1.70;;;;;;;;;;5013276;28;20099;-67
2022/08/01 09:08:24;;;;;;;5.50;1.70;;;;;;;;;;5012527;28;20025;-67
2022/08/01 09:10:50;;;;;;;4.97;1.73;;;;;;;;;;5031058;28;20037;-67
2022/08/01 09:13:16;;;;;;;6.80;1.90;;;;;;;;;;5009699;28;20025;-68
2022/08/01 09:15:43;;;;;;;6.65;1.88;;;;;;;;;;5030329;28;20033;-67
2022/08/01 09:18:27;;;;;;;5.72;1.92;;;;;;;;;;5011383;28;20029;-67
2022/08/01 09:21:07;;;;;;;5.38;2.00;;;;;;;;;;5031008;28;20156;-67
2022/08/01 09:23:35;;;;;;;5.82;1.90;;;;;;;;;;5014496;28;20574;-66
2022/08/01 09:26:01;;;;;;;6.68;2.15;;;;;;;;;;5014715;28;20037;-66
2022/08/01 09:28:30;;;;;;;6.38;2.17;;;;;;;;;;5032928;28;20052;-66
2022/08/01 09:30:57;;;;;;;6.72;1.70;;;;;;;;;;5032619;28;20032;-67
2022/08/01 09:33:23;;;;;;;5.93;2.00;;;;;;;;;;5032617;28;20484;-66
2022/08/01 09:35:58;;;;;;;6.40;1.75;;;;;;;;;;5015329;28;20034;-66
2022/08/01 09:38:28;;;;;;;7.82;1.80;;;;;;;;;;5015990;28;20434;-66
2022/08/01 09:40:56;;;;;;;7.20;1.70;;;;;;;;;;5031692;28;20476;-66
2022/08/01 09:43:23;;;;;;;9.95;2.10;;;;;;;;;;5028921;28;20426;-67
2022/08/01 09:45:50;;;;;;;6.28;1.60;;;;;;;;;;5030550;28;20495;-66
2022/08/01 09:48:16;;;;;;;7.75;1.80;;;;;;;;;;5012227;28;20031;-68
2022/08/01 09:50:43;;;;;;;7.22;1.75;;;;;;;;;;5030988;28;20021;-67
2022/08/01 09:53:10;;;;;;;6.32;1.42;;;;;;;;;;5028391;28;20041;-68
2022/08/01 09:55:37;;;;;;;5.82;1.52;;;;;;;;;;5013311;28;20032;-67
2022/08/01 09:58:04;;;;;;;5.22;1.50;;;;;;;;;;5012537;28;20033;-67
2022/08/01 10:00:30;;;;;;;6.22;1.60;;;;;;;;;;5029103;28;20056;-68
2022/08/01 10:02:57;;;;;;;6.47;1.67;;;;;;;;;;5012533;28;20086;-67
2022/08/01 10:05:33;;;;;;;6.60;1.63;;;;;;;;;;5029828;28;20031;-68
2022/08/01 10:08:01;;;;;;;8.80;1.88;;;;;;;;;;5030140;28;20024;-66
2022/08/01 10:10:27;;;;;;;8.27;2.03;;;;;;;;;;5030492;28;20436;-67
2022/08/01 10:12:55;;;;;;;5.88;1.60;;;;;;;;;;5014891;28;20025;-67
2022/08/01 10:15:21;;;;;;;5.30;1.50;;;;;;;;;;5028369;28;20052;-67
2022/08/01 10:17:53;;;;;;;9.98;1.80;;;;;;;;;;5029706;28;20275;-67
2022/08/01 10:20:20;;;;;;;4.85;1.25;;;;;;;;;;5028661;28;20104;-67
2022/08/01 10:22:47;;;;;;;6.72;1.55;;;;;;;;;;5030175;28;20067;-68
2022/08/01 10:25:16;;;;;;;8.10;1.60;;;;;;;;;;5010523;28;20035;-67
2022/08/01 10:27:45;;;;;;;6.53;1.55;;;;;;;;;;5030692;28;20147;-67
2022/08/01 10:30:11;;;;;;;6.93;1.73;;;;;;;;;;5028608;28;20021;-67
2022/08/01 10:32:38;;;;;;;6.13;1.60;;;;;;;;;;5031738;28;20040;-67
2022/08/01 10:35:05;;;;;;;3.70;1.40;;;;;;;;;;5014603;28;20025;-68
2022/08/01 10:37:31;;;;;;;4.78;1.40;;;;;;;;;;5012703;28;20424;-67
2022/08/01 10:39:57;;;;;;;4.32;1.33;;;;;;;;;;5030027;28;20025;-67
2022/08/01 10:42:24;;;;;;;4.75;1.30;;;;;;;;;;5015107;28;20572;-69
2022/08/01 10:44:50;;;;;;;5.75;1.38;;;;;;;;;;5031709;28;20053;-67
2022/08/01 10:47:18;;;;;;;4.95;1.25;;;;;;;;;;5027728;28;20094;-69
2022/08/01 10:49:53;;;;;;;5.45;1.60;;;;;;;;;;5031191;28;20640;-67
2022/08/01 10:52:20;;;;;;;5.68;1.55;;;;;;;;;;5026977;28;20056;-67
2022/08/01 10:54:46;;;;;;;5.88;1.60;;;;;;;;;;5010097;28;20884;-67
2022/08/01 10:57:13;;;;;;;5.53;1.40;;;;;;;;;;5028460;28;20139;-68
2022/08/01 10:59:50;;;;;;;5.13;1.50;;;;;;;;;;5009547;28;20106;-67
2022/08/01 11:02:33;;;;;;;4.05;1.33;;;;;;;;;;5010745;28;20047;-67
2022/08/01 11:05:05;;;;;;;5.43;1.40;;;;;;;;;;5011716;28;20064;-67
2022/08/01 11:07:45;;;;;;;5.13;1.40;;;;;;;;;;5028533;28;20060;-67
2022/08/01 11:10:19;;;;;;;7.32;1.50;;;;;;;;;;5021899;28;20862;-67
2022/08/01 11:12:45;;;;;;;5.70;1.30;;;;;;;;;;5026378;28;20044;-67
2022/08/01 11:15:11;;;;;;;4.88;1.20;;;;;;;;;;5023977;28;20090;-67
2022/08/01 11:17:47;;;;;;;3.90;1.20;;;;;;;;;;5025842;28;20116;-67
2022/08/01 11:20:18;;;;;;;5.47;1.25;;;;;;;;;;5007065;28;20032;-67
2022/08/01 11:23:04;;;;;;;7.55;1.30;;;;;;;;;;5026511;28;20032;-66
2022/08/01 11:25:36;;;;;;;5.78;1.30;;;;;;;;;;5028651;28;20253;-67
2022/08/01 11:28:17;;;;;;;4.30;1.25;;;;;;;;;;5009621;28;20466;-64
2022/08/01 11:30:45;;;;;;;4.88;1.45;;;;;;;;;;5010103;28;20021;-65
2022/08/01 11:33:12;;;;;;;4.97;1.30;;;;;;;;;;5026884;28;20036;-65
2022/08/01 11:35:58;;;;;;;4.28;1.20;;;;;;;;;;5028313;28;20633;-65
2022/08/01 11:38:27;;;;;;;5.90;1.20;;;;;;;;;;5028920;28;20049;-65
2022/08/01 11:41:14;;;;;;;5.60;1.02;;;;;;;;;;5022168;28;20033;-66
2022/08/01 11:43:59;;;;;;;4.57;1.20;;;;;;;;;;5014019;28;20136;-66
2022/08/01 11:46:25;;;;;;;;;;;;;;;;;;5020045;28;20029;-68
2022/08/01 11:49:11;;;;;;;6.90;1.50;;;;;;;;;;5001785;28;19916;-68
2022/08/01 11:51:37;;;;;;;4.10;1.08;;;;;;;;;;5002897;28;20453;-69
2022/08/01 11:54:03;;;;;;;7.97;1.45;;;;;;;;;;5019989;28;20037;-68
2022/08/01 11:56:29;;;;;;;4.50;1.10;;;;;;;;;;5021638;28;20483;-68
2022/08/01 11:59:00;;;;;;;6.40;1.30;;;;;;;;;;5022384;28;20033;-67
2022/08/01 12:01:26;;;;;;;6.38;1.45;;;;;;;;;;5021937;28;20108;-69
2022/08/01 12:03:56;;;;;;;4.55;1.30;;;;;;;;;;5021093;28;20523;-68
2022/08/01 12:06:28;;;;;;;6.18;1.27;;;;;;;;;;5021893;28;20044;-68
2022/08/01 12:08:54;;;;;;;4.43;1.10;;;;;;;;;;5025092;28;20480;-69
2022/08/01 12:11:21;;;;;;;4.93;1.17;;;;;;;;;;5023096;28;20332;-69
2022/08/01 12:13:47;;;;;;;6.68;1.40;;;;;;;;;;5024168;28;20041;-66
2022/08/01 12:16:14;;;;;;;3.83;1.30;;;;;;;;;;5019448;28;20111;-65
2022/08/01 12:18:44;;;;;;;5.22;1.45;;;;;;;;;;5025675;28;20025;-65
2022/08/01 12:21:10;;;;;;;5.68;1.25;;;;;;;;;;5022308;28;20489;-64
2022/08/01 12:23:36;;;;;;;4.78;1.30;;;;;;;;;;5025601;28;20040;-63
2022/08/01 12:26:03;;;;;;;4.25;1.05;;;;;;;;;;5021582;28;20033;-67
2022/08/01 12:28:29;;;;;;;5.50;1.33;;;;;;;;;;5025764;28;20029;-65
2022/08/01 12:30:56;;;;;;;4.20;1.30;;;;;;;;;;5023856;28;20184;-65
2022/08/01 12:33:22;;;;;;;4.95;1.40;;;;;;;;;;5022236;28;20033;-65
2022/08/01 12:35:48;;;;;;;4.80;1.40;;;;;;;;;;5022816;28;20033;-65
2022/08/01 12:38:15;;;;;;;4.88;1.30;;;;;;;;;;5024029;28;20108;-65
2022/08/01 12:40:42;;;;;;;4.80;1.20;;;;;;;;;;5024124;28;20025;-65
2022/08/01 12:43:09;;;;;;;6.00;1.40;;;;;;;;;;5018718;28;20114;-65
2022/08/01 12:45:39;;;;;;;3.47;1.23;;;;;;;;;;5020884;28;20377;-65
2022/08/01 12:48:11;;;;;;;4.35;1.20;;;;;;;;;;5019279;28;20021;-68
2022/08/01 12:50:37;;;;;;;4.97;1.20;;;;;;;;;;5022739;28;20365;-68
2022/08/01 12:53:04;;;;;;;4.50;1.27;;;;;;;;;;5020273;28;20065;-68
2022/08/01 12:55:30;;;;;;;4.45;1.40;;;;;;;;;;5035679;28;20439;-68
2022/08/01 12:58:07;;;;;;;4.55;1.38;;;;;;;;;;5021068;28;20120;-68
2022/08/01 13:00:33;;;;;;;4.60;1.40;;;;;;;;;;5022883;28;20029;-67
2022/08/01 13:03:19;;;;;;;5.45;1.40;;;;;;;;;;5018453;28;20051;-67
2022/08/01 13:05:46;;;;;;;5.63;1.30;;;;;;;;;;5015901;28;20100;-66
2022/08/01 13:08:13;;;;;;;4.25;1.20;;;;;;;;;;5023799;28;20037;-66
2022/08/01 13:10:40;;;;;;;5.75;1.30;;;;;;;;;;5028461;28;20031;-66
2022/08/01 13:13:07;;;;;;;5.78;1.38;;;;;;;;;;5024910;28;20260;-67
2022/08/01 13:15:35;;;;;;;5.35;1.20;;;;;;;;;;5028952;28;20036;-66
2022/08/01 13:18:02;;;;;;;5.22;1.20;;;;;;;;;;5026373;28;20047;-67
2022/08/01 13:20:33;;;;;;;4.93;1.30;;;;;;;;;;5027892;28;20056;-66
2022/08/01 13:23:13;;;;;;;5.32;1.40;;;;;;;;;;5025287;28;20594;-67
2022/08/01 13:25:54;;;;;;;4.43;1.20;;;;;;;;;;5026585;28;20468;-65
2022/08/01 13:28:23;;;;;;;3.80;1.27;;;;;;;;;;5026110;28;20162;-70
2022/08/01 13:30:53;;;;;;;4.43;1.20;;;;;;;;;;5027049;28;20522;-66
2022/08/01 13:33:19;;;;;;;4.13;1.13;;;;;;;;;;5025601;28;20126;-67
2022/08/01 13:35:47;;;;;;;4.22;1.20;;;;;;;;;;5042466;28;20496;-67
2022/08/01 13:38:13;;;;;;;5.40;1.38;;;;;;;;;;5026001;28;20091;-68
2022/08/01 13:40:39;;;;;;;6.65;1.35;;;;;;;;;;5022680;28;20541;-67
2022/08/01 13:43:05;;;;;;;4.13;1.33;;;;;;;;;;5024239;28;20025;-68
2022/08/01 13:45:31;;;;;;;6.85;1.17;;;;;;;;;;5024890;28;20417;-68
2022/08/01 13:47:58;;;;;;;6.60;1.60;;;;;;;;;;5026454;28;20480;-68
2022/08/01 13:50:24;;;;;;;5.28;1.33;;;;;;;;;;5026262;28;20025;-68
2022/08/01 13:52:50;;;;;;;5.35;1.30;;;;;;;;;;5026806;28;20151;-67
2022/08/01 13:55:16;;;;;;;5.75;1.40;;;;;;;;;;5007519;28;20087;-68
2022/08/01 13:57:42;;;;;;;4.80;1.17;;;;;;;;;;5011925;28;20112;-69
2022/08/01 14:00:09;;;;;;;3.33;1.10;;;;;;;;;;5025025;28;20284;-68
2022/08/01 14:02:35;;;;;;;3.97;1.42;;;;;;;;;;5027281;28;20028;-69
2022/08/01 14:05:01;;;;;;;5.00;1.77;;;;;;;;;;5026522;28;20033;-67
2022/08/01 14:07:28;;;;;;;5.32;1.80;;;;;;;;;;5028658;28;20033;-65
2022/08/01 14:09:54;;;;;;;5.07;1.60;;;;;;;;;;5028817;28;20039;-66
2022/08/01 14:12:20;;;;;;;7.30;1.98;;;;;;;;;;5009578;28;20029;-66
2022/08/01 14:14:46;;;;;;;6.95;1.60;;;;;;;;;;5028650;28;20037;-67
2022/08/01 14:17:12;;;;;;;5.40;1.65;;;;;;;;;;5009293;28;20912;-66
2022/08/01 14:19:38;;;;;;;5.95;1.48;;;;;;;;;;5027388;28;20103;-68
2022/08/01 14:22:04;;;;;;;4.85;1.40;;;;;;;;;;5012063;28;20033;-66
2022/08/01 14:24:30;;;;;;;5.28;1.10;;;;;;;;;;5006748;28;20487;-66
2022/08/01 14:26:56;;;;;;;3.42;1.10;;;;;;;;;;5025336;28;20106;-68
2022/08/01 14:29:22;;;;;;;4.45;1.10;;;;;;;;;;5006385;28;20437;-65
2022/08/01 14:31:48;;;;;;;4.00;1.23;;;;;;;;;;5026045;28;20317;-69
2022/08/01 14:34:15;;;;;;;7.95;1.33;;;;;;;;;;5025758;28;20043;-66
2022/08/01 14:36:41;;;;;;;5.60;1.30;;;;;;;;;;5024600;28;20064;-66
2022/08/01 14:39:07;;;;;;;7.00;1.40;;;;;;;;;;5022041;28;20041;-67
2022/08/01 14:41:34;;;;;;;4.78;1.30;;;;;;;;;;5008319;28;20029;-67
2022/08/01 14:44:00;;;;;;;5.43;1.27;;;;;;;;;;5023762;28;20032;-67
2022/08/01 14:46:27;;;;;;;4.43;1.35;;;;;;;;;;5025183;28;20544;-65
2022/08/01 14:48:53;;;;;;;5.72;1.40;;;;;;;;;;5027511;28;20029;-68